createdAt,value
2023-02-14T00:02:58.173Z,4.62
2023-02-14T00:08:02.196Z,4.56
2023-02-14T00:13:06.165Z,4.51
2023-02-14T00:18:11.238Z,4.46
2023-02-14T00:23:15.220Z,4.44
2023-02-14T00:28:21.328Z,4.42
2023-02-14T00:33:25.678Z,4.42
2023-02-14T00:38:33.396Z,4.41
2023-02-14T00:43:37.239Z,4.41
2023-02-14T00:48:48.567Z,4.40
2023-02-14T00:53:53.418Z,4.40
2023-02-14T00:58:57.565Z,4.39
2023-02-14T01:04:01.569Z,4.37
2023-02-14T01:09:08.414Z,4.36
2023-02-14T01:14:15.267Z,4.37
2023-02-14T01:19:19.820Z,4.36
2023-02-14T01:24:25.433Z,4.36
2023-02-14T01:29:29.301Z,4.36
2023-02-14T01:34:33.723Z,4.34
2023-02-14T01:39:37.558Z,4.33
2023-02-14T01:45:05.398Z,4.33
2023-02-14T01:50:17.223Z,4.30
2023-02-14T01:55:25.582Z,4.28
2023-02-14T02:00:48.445Z,4.28
2023-02-14T02:05:56.516Z,4.27
2023-02-14T02:11:01.542Z,4.25
2023-02-14T02:16:17.153Z,4.22
2023-02-14T02:21:59.997Z,4.21
2023-02-14T02:27:42.596Z,4.18
2023-02-14T02:33:43.721Z,4.16
2023-02-14T02:39:13.488Z,4.14
2023-02-14T02:44:19.714Z,4.14
2023-02-14T02:50:17.675Z,4.15
2023-02-14T03:01:21.505Z,4.13
2023-02-14T03:06:26.093Z,4.12
2023-02-14T03:11:30.111Z,4.10
2023-02-14T03:16:38.979Z,4.10
2023-02-14T03:22:09.659Z,4.10
2023-02-14T03:27:24.812Z,4.11
2023-02-14T03:32:52.048Z,4.10
2023-02-14T03:38:37.160Z,4.09
2023-02-14T03:43:53.962Z,4.07
2023-02-14T03:49:01.390Z,4.05
2023-02-14T03:54:08.420Z,4.07
2023-02-14T03:59:22.528Z,4.07
2023-02-14T04:04:28.225Z,4.05
2023-02-14T04:09:32.240Z,4.04
2023-02-14T04:14:36.869Z,4.04
2023-02-14T04:19:40.521Z,4.02
2023-02-14T04:24:44.110Z,3.99
2023-02-14T04:29:50.055Z,3.98
2023-02-14T04:34:54.157Z,3.99
2023-02-14T04:39:58.009Z,3.97
2023-02-14T04:45:04.088Z,3.96
2023-02-14T04:50:08.632Z,3.97
2023-02-14T04:55:12.298Z,3.97
2023-02-14T05:00:16.576Z,3.96
2023-02-14T05:05:20.299Z,3.95
2023-02-14T05:10:24.561Z,3.93
2023-02-14T05:15:28.254Z,3.94
2023-02-14T05:20:32.768Z,3.93
2023-02-14T05:25:36.476Z,3.91
2023-02-14T05:30:40.794Z,3.89
2023-02-14T05:35:44.833Z,3.86
2023-02-14T05:40:48.520Z,3.86
2023-02-14T05:45:56.530Z,3.87
2023-02-14T05:51:28.556Z,3.85
2023-02-14T05:56:32.572Z,3.84
2023-02-14T06:01:36.776Z,3.85
2023-02-14T06:06:40.596Z,3.85
2023-02-14T06:11:44.239Z,3.84
2023-02-14T06:16:48.000Z,3.83
2023-02-14T06:21:53.020Z,3.83
2023-02-14T06:26:58.395Z,3.84
2023-02-14T06:32:07.457Z,3.85
2023-02-14T06:37:11.287Z,3.85
2023-02-14T06:42:16.798Z,3.86
2023-02-14T06:47:20.616Z,3.89
2023-02-14T06:52:24.238Z,3.91
2023-02-14T06:57:28.108Z,3.95
2023-02-14T07:02:31.744Z,3.97
2023-02-14T07:07:35.478Z,4.00
2023-02-14T07:12:39.954Z,4.03
2023-02-14T07:17:43.819Z,4.08
2023-02-14T07:22:48.118Z,4.12
2023-02-14T07:27:52.362Z,4.16
2023-02-14T07:32:57.726Z,4.19
2023-02-14T07:38:01.704Z,4.24
2023-02-14T07:43:05.629Z,4.29
2023-02-14T07:48:09.208Z,4.34
2023-02-14T07:53:13.401Z,4.41
2023-02-14T07:58:17.408Z,4.45
2023-02-14T08:03:21.033Z,4.48
2023-02-14T08:08:29.266Z,4.52
2023-02-14T08:13:33.220Z,4.58
2023-02-14T08:18:39.262Z,4.61
2023-02-14T08:23:43.355Z,4.66
2023-02-14T08:28:47.807Z,4.72
2023-02-14T08:33:52.415Z,4.79
2023-02-14T08:38:57.973Z,4.87
2023-02-14T08:44:02.248Z,4.93
2023-02-14T08:49:06.169Z,4.91
2023-02-14T08:54:09.987Z,4.93
2023-02-14T08:59:13.752Z,5.03
2023-02-14T09:04:18.441Z,5.14
2023-02-14T09:09:22.354Z,5.21
2023-02-14T09:14:26.213Z,5.27
2023-02-14T09:19:30.119Z,5.35
2023-02-14T09:24:35.579Z,5.32
2023-02-14T09:29:40.347Z,5.36
2023-02-14T09:35:02.567Z,5.36
2023-02-14T09:40:06.853Z,5.40
2023-02-14T09:45:25.684Z,5.42
2023-02-14T09:50:50.823Z,5.45
2023-02-14T09:56:02.399Z,5.49
2023-02-14T10:01:16.139Z,5.60
2023-02-14T10:06:26.967Z,5.69
2023-02-14T10:11:38.156Z,5.74
2023-02-14T10:17:20.171Z,5.75
2023-02-14T10:22:29.221Z,5.82
2023-02-14T10:27:35.806Z,5.88
2023-02-14T10:33:19.644Z,5.93
2023-02-14T10:39:04.433Z,5.89
2023-02-14T10:44:30.702Z,5.96
2023-02-14T10:49:44.890Z,6.01
2023-02-14T10:54:58.533Z,6.06
2023-02-14T11:00:27.555Z,6.11
2023-02-14T11:05:39.171Z,6.12
2023-02-14T11:10:45.833Z,6.20
2023-02-14T11:16:05.940Z,6.13
2023-02-14T11:21:37.692Z,6.18
2023-02-14T11:26:55.854Z,6.35
2023-02-14T11:32:28.952Z,6.44
2023-02-14T11:37:49.928Z,6.32
2023-02-14T11:43:02.228Z,6.42
2023-02-14T11:49:02.953Z,6.44
2023-02-14T11:54:23.803Z,6.52
2023-02-14T11:59:57.781Z,6.57
2023-02-14T12:05:17.691Z,6.54
2023-02-14T12:10:51.385Z,6.56
2023-02-14T12:15:59.147Z,6.61
2023-02-14T12:21:27.982Z,6.74
2023-02-14T12:26:34.726Z,6.79
2023-02-14T12:31:39.011Z,6.82
2023-02-14T12:37:00.210Z,6.72
2023-02-14T12:42:27.057Z,6.55
2023-02-14T12:47:51.259Z,6.59
2023-02-14T12:53:29.632Z,6.63
2023-02-14T12:58:57.915Z,6.54
2023-02-14T13:04:22.246Z,6.51
2023-02-14T13:09:46.088Z,6.60
2023-02-14T13:15:07.427Z,6.41
2023-02-14T13:20:28.655Z,6.38
2023-02-14T13:25:39.724Z,6.40
2023-02-14T13:30:43.648Z,6.37
2023-02-14T13:35:48.038Z,6.28
2023-02-14T13:40:52.362Z,6.19
2023-02-14T13:45:58.524Z,6.17
2023-02-14T13:51:09.664Z,6.12
2023-02-14T13:56:34.428Z,6.04
2023-02-14T14:01:46.954Z,5.98
2023-02-14T14:07:22.390Z,5.84
2023-02-14T14:12:52.338Z,5.87
2023-02-14T14:18:42.017Z,5.95
2023-02-14T14:24:24.643Z,5.96
2023-02-14T14:35:18.892Z,6.03
2023-02-14T14:40:32.531Z,6.05
2023-02-14T14:45:41.141Z,5.97
2023-02-14T14:50:53.578Z,5.89
2023-02-14T14:55:57.548Z,5.77
2023-02-14T15:01:04.429Z,5.71
2023-02-14T15:06:20.870Z,5.65
2023-02-14T15:12:03.337Z,5.56
2023-02-14T15:17:22.578Z,5.53
2023-02-14T15:22:42.150Z,5.48
2023-02-14T15:27:46.241Z,5.47
2023-02-14T15:32:51.580Z,5.40
2023-02-14T15:37:59.398Z,5.35
2023-02-14T15:43:29.982Z,5.30
2023-02-14T15:48:38.168Z,5.21
2023-02-14T15:53:58.569Z,5.13
2023-02-14T15:59:32.511Z,5.04
2023-02-14T16:04:44.162Z,4.93
2023-02-14T16:09:50.166Z,4.86
2023-02-14T16:15:22.489Z,4.79
2023-02-14T16:20:40.361Z,4.79
2023-02-14T16:25:45.385Z,4.77
2023-02-14T16:30:55.860Z,4.71
2023-02-14T17:40:18.124Z,4.19
2023-02-14T17:45:50.297Z,4.12
2023-02-14T17:51:12.109Z,4.12
2023-02-14T17:56:26.123Z,4.16
2023-02-14T18:01:37.831Z,4.16
2023-02-14T18:07:49.354Z,4.09
2023-02-14T18:12:45.430Z,3.91
2023-02-14T18:18:03.274Z,3.64
2023-02-14T18:23:10.226Z,3.55
2023-02-14T18:28:18.378Z,3.54
2023-02-14T18:33:25.423Z,3.52
2023-02-14T18:38:30.946Z,3.48
2023-02-14T18:43:44.646Z,3.42
2023-02-14T18:48:51.212Z,3.40
2023-02-14T18:53:59.909Z,3.42
2023-02-14T18:59:11.257Z,3.43
2023-02-14T19:04:19.726Z,3.41
2023-02-14T19:09:28.355Z,3.39
2023-02-14T19:14:37.981Z,3.33
2023-02-14T19:19:42.698Z,3.24
2023-02-14T19:24:49.333Z,3.21
2023-02-14T19:29:56.212Z,3.14
2023-02-14T19:35:02.584Z,3.12
2023-02-14T19:40:11.855Z,3.06
2023-02-14T19:45:18.155Z,3.04
2023-02-14T19:50:27.144Z,3.01
2023-02-14T19:55:32.909Z,2.95
2023-02-14T20:00:40.460Z,2.86
2023-02-14T20:05:50.780Z,2.79
2023-02-14T20:10:56.083Z,2.70
2023-02-14T20:16:03.082Z,2.62
2023-02-14T20:21:20.239Z,2.52
2023-02-14T20:26:27.996Z,2.39
2023-02-14T20:31:48.644Z,2.24
2023-02-14T20:37:07.679Z,2.05
2023-02-14T20:42:15.888Z,1.81
2023-02-14T20:47:23.073Z,1.67
2023-02-14T20:52:35.308Z,1.53
2023-02-14T20:57:41.219Z,1.36
2023-02-14T21:02:52.083Z,1.14
2023-02-14T21:08:00.126Z,1.00
2023-02-14T21:13:14.167Z,0.93
2023-02-14T21:18:20.278Z,0.85
2023-02-14T21:23:28.013Z,0.80
2023-02-14T21:28:35.912Z,0.75
2023-02-14T21:33:44.511Z,0.63
2023-02-14T21:38:51.093Z,0.47
2023-02-14T21:43:59.978Z,0.43
2023-02-14T21:49:26.879Z,0.36
2023-02-14T21:54:32.400Z,0.32
2023-02-14T21:59:44.196Z,0.25
2023-02-14T22:04:49.750Z,0.13
2023-02-14T22:09:54.386Z,0.05
2023-02-14T22:15:02.399Z,-0.02
2023-02-14T22:20:10.582Z,-0.08
2023-02-14T22:25:15.256Z,-0.15
2023-02-14T22:30:20.545Z,-0.21
2023-02-14T22:35:24.432Z,-0.19
2023-02-14T22:40:29.458Z,-0.24
2023-02-14T22:45:33.478Z,-0.23
2023-02-14T22:50:37.579Z,-0.23
2023-02-14T22:55:43.239Z,-0.29
2023-02-14T23:00:50.477Z,-0.40
2023-02-14T23:05:59.561Z,-0.56
2023-02-14T23:11:08.947Z,-0.64
2023-02-14T23:16:31.589Z,-0.72
2023-02-14T23:21:55.741Z,-0.73
2023-02-14T23:27:00.243Z,-0.71
2023-02-14T23:32:06.168Z,-0.68
2023-02-14T23:37:11.777Z,-0.66
2023-02-14T23:42:16.449Z,-0.63
2023-02-14T23:47:21.490Z,-0.56
2023-02-14T23:52:26.226Z,-0.57
2023-02-14T23:57:29.970Z,-0.59
